createdAt,value
2018-02-04T00:00:06.393Z,45.08
2018-02-04T00:01:10.300Z,48.40
2018-02-04T00:02:15.147Z,48.72
2018-02-04T00:03:19.344Z,51.20
2018-02-04T00:04:23.669Z,51.95
2018-02-04T00:05:27.601Z,56.25
2018-02-04T00:06:31.623Z,54.15
2018-02-04T00:07:35.705Z,47.67
2018-02-04T00:08:39.703Z,50.78
2018-02-04T00:09:43.790Z,47.40
2018-02-04T00:10:48.032Z,46.70
2018-02-04T00:11:52.880Z,50.47
2018-02-04T00:12:56.852Z,50.63
2018-02-04T00:14:01.609Z,48.85
2018-02-04T00:15:05.747Z,49.08
2018-02-04T00:16:09.777Z,49.83
2018-02-04T00:17:14.781Z,51.60
2018-02-04T00:18:18.684Z,48.22
2018-02-04T00:19:22.748Z,54.50
2018-02-04T00:20:26.906Z,48.17
2018-02-04T00:21:31.649Z,47.17
2018-02-04T00:22:39.753Z,50.20
2018-02-04T00:23:43.698Z,47.90
2018-02-04T00:24:48.487Z,44.40
2018-02-04T00:25:52.493Z,49.00
2018-02-04T00:26:56.485Z,48.38
2018-02-04T00:28:00.417Z,49.17
2018-02-04T00:29:04.832Z,48.83
2018-02-04T00:30:09.279Z,49.42
2018-02-04T00:31:13.677Z,46.60
2018-02-04T00:32:17.883Z,49.60
2018-02-04T00:33:22.065Z,52.28
2018-02-04T00:34:26.547Z,48.13
2018-02-04T00:35:30.807Z,47.10
2018-02-04T00:36:34.959Z,48.05
2018-02-04T00:37:39.280Z,46.10
2018-02-04T00:38:43.424Z,48.10
2018-02-04T00:39:47.609Z,50.25
2018-02-04T00:40:51.917Z,50.08
2018-02-04T00:41:56.713Z,51.03
2018-02-04T00:43:00.882Z,46.78
2018-02-04T00:44:04.807Z,48.03
2018-02-04T00:45:09.033Z,48.87
2018-02-04T00:46:14.114Z,53.25
2018-02-04T00:47:18.398Z,50.67
2018-02-04T00:48:22.452Z,45.80
2018-02-04T00:49:26.500Z,55.90
2018-02-04T00:50:30.906Z,49.72
2018-02-04T00:51:35.031Z,47.60
2018-02-04T00:52:39.313Z,50.42
2018-02-04T00:53:43.468Z,46.40
2018-02-04T00:54:47.587Z,45.05
2018-02-04T00:55:51.867Z,43.63
2018-02-04T00:56:56.024Z,42.67
2018-02-04T00:58:00.273Z,37.10
2018-02-04T00:59:04.716Z,41.70
2018-02-04T01:00:08.682Z,40.80
2018-02-04T01:01:14.078Z,37.58
2018-02-04T01:02:18.142Z,40.65
2018-02-04T01:03:22.141Z,36.13
2018-02-04T01:04:26.190Z,35.00
2018-02-04T01:05:30.455Z,35.55
2018-02-04T01:06:34.392Z,37.35
2018-02-04T01:07:38.492Z,37.25
2018-02-04T01:08:42.654Z,36.42
2018-02-04T01:09:47.658Z,39.10
2018-02-04T01:10:52.053Z,39.53
2018-02-04T01:11:56.422Z,38.92
2018-02-04T01:13:01.382Z,43.17
2018-02-04T01:14:05.589Z,40.07
2018-02-04T01:15:09.780Z,39.78
2018-02-04T01:16:14.056Z,41.92
2018-02-04T01:17:19.202Z,36.55
2018-02-04T01:19:58.073Z,37.60
2018-02-04T01:21:02.164Z,40.88
2018-02-04T01:22:06.338Z,42.25
2018-02-04T01:23:10.521Z,36.70
2018-02-04T01:24:15.388Z,32.63
2018-02-04T01:25:19.572Z,35.60
2018-02-04T01:26:23.567Z,33.17
2018-02-04T01:27:27.560Z,32.90
2018-02-04T01:28:31.572Z,39.92
2018-02-04T01:29:35.743Z,35.35
2018-02-04T01:30:40.476Z,37.40
2018-02-04T01:31:44.476Z,41.40
2018-02-04T01:32:48.473Z,35.55
2018-02-04T01:33:52.545Z,31.50
2018-02-04T01:34:56.537Z,31.80
2018-02-04T01:36:00.512Z,33.13
2018-02-04T01:37:04.515Z,35.10
2018-02-04T01:38:09.432Z,28.30
2018-02-04T01:39:15.650Z,31.10
2018-02-04T01:40:19.757Z,26.98
2018-02-04T01:41:24.479Z,30.83
2018-02-04T01:42:30.657Z,27.37
2018-02-04T01:43:35.100Z,27.75
2018-02-04T01:44:41.052Z,28.52
2018-02-04T01:45:45.430Z,24.50
2018-02-04T01:46:49.596Z,26.67
2018-02-04T01:48:02.562Z,26.20
2018-02-04T01:49:06.825Z,21.67
2018-02-04T01:50:10.808Z,22.23
2018-02-04T01:51:15.024Z,22.52
2018-02-04T01:52:19.793Z,24.30
2018-02-04T01:53:23.871Z,24.73
2018-02-04T01:54:27.940Z,22.40
2018-02-04T01:55:31.991Z,23.05
2018-02-04T01:56:35.989Z,18.77
2018-02-04T01:57:39.921Z,17.83
2018-02-04T01:58:44.001Z,16.55
2018-02-04T01:59:48.708Z,15.05
2018-02-04T02:00:53.487Z,15.93
2018-02-04T02:01:57.638Z,14.55
2018-02-04T02:03:02.485Z,14.30
2018-02-04T02:04:06.865Z,12.50
2018-02-04T02:05:11.667Z,12.43
2018-02-04T02:06:15.842Z,13.03
2018-02-04T02:07:20.121Z,15.40
2018-02-04T02:08:24.276Z,15.82
2018-02-04T02:09:28.847Z,15.82
2018-02-04T02:10:33.062Z,15.20
2018-02-04T02:11:37.249Z,14.85
2018-02-04T02:12:41.403Z,14.10
2018-02-04T02:13:45.671Z,11.25
2018-02-04T02:14:49.813Z,15.25
2018-02-04T02:15:54.003Z,15.40
2018-02-04T02:16:58.097Z,13.55
2018-02-04T02:18:02.398Z,15.43
2018-02-04T02:19:06.616Z,13.45
2018-02-04T02:20:10.800Z,13.05
2018-02-04T02:21:15.001Z,15.75
2018-02-04T02:22:19.227Z,17.37
2018-02-04T02:23:23.358Z,16.37
2018-02-04T02:24:27.670Z,17.70
2018-02-04T02:25:32.552Z,18.50
2018-02-04T02:26:36.696Z,18.92
2018-02-04T02:27:40.752Z,18.92
2018-02-04T02:28:44.817Z,20.88
2018-02-04T02:29:49.841Z,18.80
2018-02-04T02:30:54.615Z,21.20
2018-02-04T02:31:58.552Z,22.73
2018-02-04T02:33:03.287Z,17.95
2018-02-04T02:34:07.260Z,20.58
2018-02-04T02:35:12.051Z,20.58
2018-02-04T02:36:16.040Z,22.37
2018-02-04T02:37:20.173Z,21.17
2018-02-04T02:38:24.461Z,23.57
2018-02-04T02:39:28.508Z,22.08
2018-02-04T02:40:32.468Z,19.50
2018-02-04T02:41:36.462Z,21.62
2018-02-04T02:42:40.419Z,21.70
2018-02-04T02:43:44.655Z,21.70
2018-02-04T02:44:48.712Z,21.27
2018-02-04T02:45:52.747Z,23.17
2018-02-04T02:46:57.137Z,20.20
2018-02-04T02:48:01.495Z,22.17
2018-02-04T02:49:05.643Z,20.02
2018-02-04T02:50:09.947Z,23.05
2018-02-04T02:54:24.644Z,22.60
2018-02-04T02:55:28.909Z,24.15
2018-02-04T02:56:33.898Z,22.67
2018-02-04T02:57:38.045Z,23.95
2018-02-04T02:58:42.206Z,21.70
2018-02-04T02:59:46.345Z,22.20
2018-02-04T03:00:51.443Z,24.02
2018-02-04T03:01:55.617Z,23.83
2018-02-04T03:03:06.209Z,24.77
2018-02-04T03:04:10.298Z,24.27
2018-02-04T03:05:14.478Z,25.90
2018-02-04T03:06:18.747Z,26.10
2018-02-04T03:07:22.928Z,25.10
2018-02-04T03:08:27.856Z,25.33
2018-02-04T03:09:32.731Z,24.40
2018-02-04T03:10:36.943Z,27.42
2018-02-04T03:11:41.144Z,24.42
2018-02-04T03:12:45.320Z,24.33
2018-02-04T03:13:49.553Z,26.60
2018-02-04T03:14:53.896Z,26.52
2018-02-04T03:15:58.796Z,27.42
2018-02-04T03:17:02.887Z,27.00
2018-02-04T03:18:06.877Z,27.30
2018-02-04T03:19:11.107Z,30.02
2018-02-04T03:20:15.130Z,32.30
2018-02-04T03:21:19.167Z,30.58
2018-02-04T03:22:23.196Z,29.70
2018-02-04T03:23:27.167Z,29.20
2018-02-04T03:24:31.134Z,31.70
2018-02-04T03:25:36.184Z,28.30
2018-02-04T03:26:40.150Z,32.92
2018-02-04T03:27:44.915Z,35.15
2018-02-04T03:28:48.923Z,34.92
2018-02-04T03:29:53.189Z,32.85
2018-02-04T03:30:58.068Z,31.90
2018-02-04T03:32:02.043Z,37.92
2018-02-04T03:33:06.084Z,36.15
2018-02-04T03:34:10.120Z,40.43
2018-02-04T03:35:14.273Z,35.83
2018-02-04T03:36:18.216Z,38.15
2018-02-04T03:37:22.176Z,36.85
2018-02-04T03:38:26.165Z,38.38
2018-02-04T03:39:30.110Z,37.05
2018-02-04T03:40:34.164Z,35.95
2018-02-04T03:41:38.304Z,36.35
2018-02-04T03:42:43.069Z,36.30
2018-02-04T03:43:47.041Z,37.15
2018-02-04T03:44:51.028Z,37.90
2018-02-04T03:45:55.709Z,35.55
2018-02-04T03:46:59.763Z,33.88
2018-02-04T03:48:03.687Z,36.65
2018-02-04T03:49:07.670Z,33.65
2018-02-04T03:50:12.421Z,32.83
2018-02-04T03:51:16.428Z,32.72
2018-02-04T03:52:20.434Z,33.08
2018-02-04T03:53:24.599Z,35.75
2018-02-04T03:54:29.316Z,32.88
2018-02-04T03:55:34.688Z,32.13
2018-02-04T03:56:39.024Z,37.03
2018-02-04T03:57:43.223Z,33.28
2018-02-04T03:58:48.076Z,32.58
2018-02-04T03:59:52.228Z,34.70
2018-02-04T04:00:56.363Z,31.35
2018-02-04T04:02:00.744Z,31.05
2018-02-04T04:03:05.808Z,33.35
2018-02-04T04:04:09.977Z,33.13
2018-02-04T04:05:14.776Z,32.47
2018-02-04T04:06:18.794Z,38.47
2018-02-04T04:07:23.557Z,33.65
2018-02-04T04:08:27.530Z,38.45
2018-02-04T04:09:31.454Z,32.35
2018-02-04T04:10:35.447Z,32.73
2018-02-04T04:11:39.438Z,35.75
2018-02-04T04:12:43.485Z,30.70
2018-02-04T04:13:47.430Z,31.35
2018-02-04T04:14:51.371Z,32.03
2018-02-04T04:15:55.388Z,32.63
2018-02-04T04:16:59.318Z,30.40
2018-02-04T04:18:04.368Z,31.70
2018-02-04T04:19:08.305Z,30.45
2018-02-04T04:20:12.422Z,29.85
2018-02-04T04:21:16.355Z,32.15
2018-02-04T04:22:20.287Z,27.55
2018-02-04T04:23:24.513Z,30.20
2018-02-04T04:24:28.715Z,34.70
2018-02-04T04:25:32.870Z,30.35
2018-02-04T04:26:36.957Z,28.75
2018-02-04T04:27:41.113Z,32.47
2018-02-04T04:28:45.480Z,27.60
2018-02-04T04:29:49.620Z,27.83
2018-02-04T04:30:53.724Z,28.15
2018-02-04T04:31:57.818Z,24.67
2018-02-04T04:33:01.927Z,24.83
2018-02-04T04:34:06.130Z,26.10
2018-02-04T04:35:10.293Z,24.70
2018-02-04T04:36:14.530Z,23.73
2018-02-04T04:37:18.611Z,24.95
2018-02-04T04:38:22.689Z,25.37
2018-02-04T04:39:27.943Z,22.92
2018-02-04T04:40:32.083Z,22.73
2018-02-04T04:41:36.258Z,24.45
2018-02-04T04:42:40.388Z,24.65
2018-02-04T04:43:44.359Z,23.20
2018-02-04T04:44:48.312Z,25.62
2018-02-04T04:45:53.101Z,25.27
2018-02-04T04:46:57.045Z,21.90
2018-02-04T04:48:01.813Z,24.75
2018-02-04T04:49:05.796Z,24.77
2018-02-04T04:50:09.883Z,23.70
2018-02-04T04:51:13.947Z,24.37
2018-02-04T04:52:17.992Z,24.00
2018-02-04T04:53:22.932Z,25.45
2018-02-04T04:54:27.714Z,23.80
2018-02-04T04:55:32.065Z,23.25
2018-02-04T04:56:36.235Z,23.90
2018-02-04T04:57:40.350Z,24.85
2018-02-04T04:58:44.509Z,23.27
2018-02-04T04:59:49.478Z,22.10
2018-02-04T05:00:53.624Z,20.70
2018-02-04T05:01:57.606Z,21.52
2018-02-04T05:03:01.598Z,18.33
2018-02-04T05:04:05.575Z,18.15
2018-02-04T05:05:09.544Z,22.75
2018-02-04T05:06:14.333Z,18.80
2018-02-04T05:07:18.436Z,17.58
2018-02-04T05:08:22.472Z,18.02
2018-02-04T05:09:26.405Z,19.52
2018-02-04T05:10:30.465Z,15.80
2018-02-04T05:11:34.600Z,18.87
2018-02-04T05:12:38.579Z,17.70
2018-02-04T05:13:42.835Z,16.35
2018-02-04T05:14:46.977Z,14.68
2018-02-04T05:15:51.930Z,15.93
2018-02-04T05:16:56.107Z,14.40
2018-02-04T05:18:00.348Z,12.50
2018-02-04T05:19:04.458Z,10.18
2018-02-04T05:20:08.401Z,10.55
2018-02-04T05:21:13.202Z,11.32
2018-02-04T05:22:17.218Z,9.77
2018-02-04T05:23:21.933Z,11.30
2018-02-04T05:24:26.677Z,10.50
2018-02-04T05:25:30.678Z,9.57
2018-02-04T05:26:34.685Z,13.00
2018-02-04T05:27:38.944Z,10.23
2018-02-04T05:28:43.053Z,10.45
2018-02-04T05:29:47.243Z,8.23
2018-02-04T05:30:51.498Z,8.77
2018-02-04T05:31:55.650Z,7.35
2018-02-04T05:32:59.901Z,7.85
2018-02-04T05:34:04.388Z,11.23
2018-02-04T05:35:09.328Z,8.18
2018-02-04T05:36:13.644Z,8.57
2018-02-04T05:37:17.812Z,8.05
2018-02-04T05:38:22.044Z,6.93
2018-02-04T05:39:27.394Z,9.48
2018-02-04T05:40:31.537Z,7.10
2018-02-04T05:41:35.792Z,7.20
2018-02-04T05:42:39.885Z,7.72
2018-02-04T05:43:44.089Z,8.95
2018-02-04T05:44:48.862Z,6.75
2018-02-04T05:45:52.804Z,9.25
2018-02-04T05:46:57.679Z,7.75
2018-02-04T05:48:01.603Z,7.40
2018-02-04T05:49:06.388Z,6.80
2018-02-04T05:50:10.435Z,6.85
2018-02-04T05:51:15.160Z,7.32
2018-02-04T05:52:19.248Z,7.43
2018-02-04T05:53:24.274Z,7.20
2018-02-04T05:54:29.221Z,8.43
2018-02-04T05:55:33.381Z,9.15
2018-02-04T05:56:37.728Z,8.10
2018-02-04T05:57:41.767Z,9.80
2018-02-04T05:58:45.717Z,7.80
2018-02-04T05:59:50.456Z,8.40
2018-02-04T06:00:54.402Z,10.07
2018-02-04T06:01:58.441Z,9.63
2018-02-04T06:03:03.401Z,10.20
2018-02-04T06:04:07.460Z,8.88
2018-02-04T06:05:11.595Z,9.13
2018-02-04T06:06:15.597Z,9.07
2018-02-04T06:07:19.734Z,8.77
2018-02-04T06:08:24.079Z,8.80
2018-02-04T06:09:27.993Z,9.50
2018-02-04T06:10:32.112Z,8.82
2018-02-04T06:11:36.077Z,11.45
2018-02-04T06:12:40.516Z,9.52
2018-02-04T06:13:44.781Z,12.73
2018-02-04T06:14:49.639Z,11.40
2018-02-04T06:15:53.792Z,11.02
2018-02-04T06:16:57.891Z,11.18
2018-02-04T06:18:02.022Z,12.45
2018-02-04T06:19:06.231Z,12.93
2018-02-04T06:20:10.539Z,11.88
2018-02-04T06:21:14.821Z,11.00
2018-02-04T06:22:20.926Z,13.82
2018-02-04T06:23:25.099Z,10.85
2018-02-04T06:24:29.489Z,10.82
2018-02-04T06:25:34.441Z,9.93
2018-02-04T06:26:38.662Z,7.45
2018-02-04T06:27:42.823Z,8.07
2018-02-04T06:28:47.729Z,8.90
2018-02-04T06:29:51.849Z,9.02
2018-02-04T06:30:56.703Z,6.10
2018-02-04T06:32:00.819Z,7.50
2018-02-04T06:33:05.037Z,6.50
2018-02-04T06:34:09.266Z,6.75
2018-02-04T06:35:14.157Z,6.20
2018-02-04T06:36:18.333Z,6.45
2018-02-04T06:37:22.428Z,6.90
2018-02-04T06:38:26.585Z,7.40
2018-02-04T06:39:31.067Z,7.18
2018-02-04T06:40:35.357Z,6.53
2018-02-04T06:41:39.342Z,8.15
2018-02-04T06:42:43.582Z,7.12
2018-02-04T06:43:47.615Z,7.95
2018-02-04T06:44:51.712Z,9.20
2018-02-04T06:45:57.043Z,12.00
2018-02-04T06:47:01.089Z,9.40
2018-02-04T06:48:05.317Z,10.45
2018-02-04T06:49:09.296Z,9.80
2018-02-04T06:50:13.465Z,9.05
2018-02-04T06:51:18.214Z,11.25
2018-02-04T06:52:22.376Z,10.55
2018-02-04T06:53:26.316Z,9.75
2018-02-04T06:54:30.716Z,10.75
2018-02-04T06:55:34.935Z,9.27
2018-02-04T06:56:39.078Z,9.55
2018-02-04T06:57:43.191Z,11.47
2018-02-04T06:58:47.445Z,10.90
2018-02-04T06:59:51.447Z,9.52
2018-02-04T07:00:55.435Z,7.78
2018-02-04T07:01:59.883Z,10.20
2018-02-04T07:03:03.907Z,8.77
2018-02-04T07:04:08.016Z,7.78
2018-02-04T07:05:12.921Z,9.80
2018-02-04T07:06:17.165Z,9.68
2018-02-04T07:07:21.895Z,10.40
2018-02-04T07:08:25.857Z,11.15
2018-02-04T07:09:29.924Z,8.93
2018-02-04T07:10:34.025Z,11.27
2018-02-04T07:11:38.041Z,8.98
2018-02-04T07:12:42.084Z,8.40
2018-02-04T07:13:46.101Z,7.35
2018-02-04T07:14:50.081Z,7.00
2018-02-04T07:15:54.984Z,7.87
2018-02-04T07:16:59.036Z,8.75
2018-02-04T07:18:03.052Z,8.75
2018-02-04T07:19:06.965Z,7.28
2018-02-04T07:20:11.032Z,7.93
2018-02-04T07:21:14.954Z,8.02
2018-02-04T07:22:18.915Z,9.07
2018-02-04T07:23:23.047Z,8.60
2018-02-04T07:24:27.028Z,8.93
2018-02-04T07:25:31.962Z,7.85
2018-02-04T07:26:36.114Z,10.52
2018-02-04T07:27:40.808Z,7.72
2018-02-04T07:28:44.808Z,8.20
2018-02-04T07:29:48.761Z,8.65
2018-02-04T07:30:53.069Z,6.72
2018-02-04T07:31:57.551Z,6.03
2018-02-04T07:33:02.508Z,8.95
2018-02-04T07:34:06.661Z,7.53
2018-02-04T07:35:10.754Z,6.43
2018-02-04T07:36:14.936Z,8.68
2018-02-04T07:37:19.071Z,6.40
2018-02-04T07:38:23.971Z,7.35
2018-02-04T07:39:28.142Z,6.95
2018-02-04T07:40:32.334Z,5.15
2018-02-04T07:41:36.461Z,5.40
2018-02-04T07:42:40.412Z,6.43
2018-02-04T07:43:45.173Z,4.60
2018-02-04T07:44:49.432Z,8.27
2018-02-04T07:45:53.417Z,4.70
2018-02-04T07:46:57.366Z,3.80
2018-02-04T07:48:01.411Z,3.65
2018-02-04T07:49:05.549Z,3.80
2018-02-04T07:50:10.232Z,6.62
2018-02-04T07:51:14.568Z,3.85
2018-02-04T07:52:19.267Z,3.70
2018-02-04T07:53:23.285Z,3.35
2018-02-04T07:54:28.115Z,5.22
2018-02-04T07:55:32.113Z,3.30
2018-02-04T07:56:36.378Z,4.10
2018-02-04T07:57:40.498Z,3.95
2018-02-04T07:58:45.427Z,4.55
2018-02-04T07:59:50.268Z,4.82
2018-02-04T08:00:54.609Z,9.02
2018-02-04T08:01:58.712Z,10.55
2018-02-04T08:03:03.176Z,5.68
2018-02-04T08:04:08.080Z,5.87
2018-02-04T08:05:12.308Z,5.00
2018-02-04T08:06:17.231Z,5.15
2018-02-04T08:07:21.390Z,3.97
2018-02-04T08:08:25.503Z,8.23
2018-02-04T08:09:29.868Z,4.62
2018-02-04T08:10:33.978Z,4.22
2018-02-04T08:11:37.941Z,4.47
2018-02-04T08:12:42.666Z,4.25
2018-02-04T08:13:46.736Z,6.87
2018-02-04T08:14:51.012Z,5.65
2018-02-04T08:15:55.019Z,4.70
2018-02-04T08:16:58.944Z,4.12
2018-02-04T08:18:03.696Z,6.10
2018-02-04T08:19:07.654Z,4.10
2018-02-04T08:20:11.734Z,4.55
2018-02-04T08:21:16.244Z,4.10
2018-02-04T08:22:21.755Z,5.90
2018-02-04T08:23:25.895Z,4.05
2018-02-04T08:24:30.148Z,3.97
2018-02-04T08:25:34.520Z,3.60
2018-02-04T08:26:38.637Z,4.90
2018-02-04T08:27:43.786Z,4.80
2018-02-04T08:28:47.948Z,4.28
2018-02-04T08:29:52.361Z,4.35
2018-02-04T08:30:56.302Z,5.62
2018-02-04T08:32:00.266Z,4.05
2018-02-04T08:33:04.505Z,4.12
2018-02-04T08:34:08.725Z,4.80
2018-02-04T08:35:13.295Z,4.70
2018-02-04T08:36:18.384Z,5.32
2018-02-04T08:37:22.671Z,4.53
2018-02-04T08:38:26.876Z,5.90
2018-02-04T08:39:31.565Z,4.25
2018-02-04T08:40:36.607Z,4.40
2018-02-04T08:41:43.438Z,3.72
2018-02-04T08:42:49.264Z,4.30
2018-02-04T08:43:53.622Z,4.18
2018-02-04T08:44:57.980Z,4.30
2018-02-04T08:48:09.457Z,4.90
2018-02-04T08:49:14.210Z,8.25
2018-02-04T08:50:19.263Z,4.80
2018-02-04T08:51:23.785Z,4.20
2018-02-04T08:52:28.089Z,4.60
2018-02-04T08:53:32.748Z,5.55
2018-02-04T08:54:37.379Z,5.70
2018-02-04T08:55:42.506Z,6.85
2018-02-04T08:56:47.468Z,5.43
2018-02-04T08:57:52.008Z,4.30
2018-02-04T08:58:56.273Z,5.28
2018-02-04T09:00:00.752Z,5.55
2018-02-04T09:01:05.778Z,5.30
2018-02-04T09:02:10.999Z,5.15
2018-02-04T09:03:17.674Z,5.15
2018-02-04T09:04:26.360Z,5.10
2018-02-04T09:05:32.886Z,6.37
2018-02-04T09:06:37.671Z,5.75
2018-02-04T09:07:43.865Z,6.20
2018-02-04T09:08:48.792Z,5.10
2018-02-04T09:09:53.376Z,7.93
2018-02-04T09:10:57.666Z,7.90
2018-02-04T09:12:03.263Z,5.85
2018-02-04T09:13:07.482Z,5.35
2018-02-04T09:14:11.650Z,6.47
2018-02-04T09:15:15.987Z,5.20
2018-02-04T09:16:20.240Z,7.20
2018-02-04T09:17:24.421Z,5.00
2018-02-04T09:18:28.938Z,5.43
2018-02-04T09:19:33.140Z,7.07
2018-02-04T09:20:37.453Z,5.93
2018-02-04T09:21:42.228Z,5.75
2018-02-04T09:22:46.270Z,5.60
2018-02-04T09:23:50.310Z,5.18
2018-02-04T09:24:54.302Z,5.97
2018-02-04T09:25:58.284Z,8.70
2018-02-04T09:27:03.078Z,9.70
2018-02-04T09:28:07.257Z,6.75
2018-02-04T09:29:11.754Z,5.35
2018-02-04T09:30:15.825Z,8.05
2018-02-04T09:31:19.998Z,5.90
2018-02-04T09:32:24.059Z,4.57
2018-02-04T09:33:28.144Z,5.20
2018-02-04T09:34:32.547Z,6.12
2018-02-04T09:35:36.678Z,5.62
2018-02-04T09:36:40.756Z,5.20
2018-02-04T09:37:44.757Z,6.72
2018-02-04T09:38:49.339Z,7.10
2018-02-04T09:39:53.621Z,5.05
2018-02-04T09:40:58.007Z,7.40
2018-02-04T09:42:02.193Z,4.90
2018-02-04T09:43:06.668Z,4.55
2018-02-04T09:44:11.067Z,6.03
2018-02-04T09:45:15.262Z,4.90
2018-02-04T09:46:19.308Z,5.00
2018-02-04T09:47:23.508Z,5.20
2018-02-04T09:48:27.746Z,5.47
2018-02-04T09:49:31.861Z,6.07
2018-02-04T09:50:35.851Z,6.22
2018-02-04T09:51:40.247Z,5.15
2018-02-04T09:52:44.187Z,5.75
2018-02-04T09:53:48.144Z,4.57
2018-02-04T09:54:52.104Z,5.45
2018-02-04T09:55:56.817Z,5.00
2018-02-04T09:57:01.059Z,6.22
2018-02-04T09:58:05.228Z,5.90
2018-02-04T09:59:10.114Z,4.82
2018-02-04T10:00:14.133Z,4.40
2018-02-04T10:01:18.237Z,4.30
2018-02-04T10:02:22.669Z,5.22
2018-02-04T10:03:27.449Z,5.82
2018-02-04T10:04:31.544Z,6.37
2018-02-04T10:05:36.086Z,5.43
2018-02-04T10:06:40.888Z,5.40
2018-02-04T10:07:45.008Z,5.22
2018-02-04T10:08:49.081Z,6.50
2018-02-04T10:09:53.284Z,5.35
2018-02-04T10:10:57.312Z,5.50
2018-02-04T10:12:01.263Z,4.93
2018-02-04T10:13:05.184Z,5.78
2018-02-04T10:14:09.242Z,6.53
2018-02-04T10:15:13.209Z,8.27
2018-02-04T10:16:17.238Z,7.62
2018-02-04T10:17:21.940Z,6.68
2018-02-04T10:19:45.437Z,8.48
2018-02-04T10:20:49.973Z,5.90
2018-02-04T10:21:54.209Z,8.75
2018-02-04T10:22:58.317Z,8.93
2018-02-04T10:24:02.423Z,9.52
2018-02-04T10:25:07.508Z,10.38
2018-02-04T10:26:11.785Z,9.95
2018-02-04T10:27:16.097Z,12.40
2018-02-04T10:28:20.470Z,7.85
2018-02-04T10:29:25.421Z,7.00
2018-02-04T10:30:29.589Z,8.53
2018-02-04T10:31:34.500Z,10.75
2018-02-04T10:32:39.113Z,9.80
2018-02-04T10:33:43.710Z,9.73
2018-02-04T10:34:48.197Z,10.20
2018-02-04T10:35:52.356Z,8.70
2018-02-04T10:36:57.256Z,10.13
2018-02-04T10:38:01.438Z,10.38
2018-02-04T10:39:06.324Z,14.10
2018-02-04T10:40:10.878Z,11.05
2018-02-04T10:41:15.054Z,10.00
2018-02-04T10:42:19.217Z,8.82
2018-02-04T10:43:23.402Z,10.65
2018-02-04T10:44:27.506Z,15.47
2018-02-04T10:45:31.944Z,10.80
2018-02-04T10:46:36.873Z,11.07
2018-02-04T10:47:41.829Z,10.35
2018-02-04T10:48:45.974Z,9.80
2018-02-04T10:49:50.189Z,10.20
2018-02-04T10:50:58.499Z,9.30
2018-02-04T10:52:03.748Z,8.60
2018-02-04T10:53:07.857Z,11.15
2018-02-04T10:54:11.989Z,8.25
2018-02-04T10:55:16.163Z,8.30
2018-02-04T10:56:20.368Z,9.55
2018-02-04T10:57:24.403Z,7.47
2018-02-04T10:58:28.863Z,9.52
2018-02-04T10:59:33.649Z,10.25
2018-02-04T11:00:37.591Z,7.70
2018-02-04T11:01:41.610Z,7.93
2018-02-04T11:02:45.565Z,7.90
2018-02-04T11:03:50.353Z,7.15
2018-02-04T11:04:54.759Z,7.15
2018-02-04T11:05:58.883Z,9.18
2018-02-04T11:07:03.868Z,9.60
2018-02-04T11:08:08.066Z,6.95
2018-02-04T11:09:12.429Z,9.70
2018-02-04T11:10:17.325Z,7.72
2018-02-04T11:11:21.550Z,8.00
2018-02-04T11:12:25.673Z,8.88
2018-02-04T11:13:29.833Z,8.45
2018-02-04T11:14:34.033Z,7.97
2018-02-04T11:15:38.153Z,7.90
2018-02-04T11:16:42.598Z,6.45
2018-02-04T11:17:47.520Z,7.75
2018-02-04T11:18:51.612Z,6.60
2018-02-04T11:19:56.565Z,9.63
2018-02-04T11:21:00.685Z,7.75
2018-02-04T11:22:04.863Z,6.93
2018-02-04T11:23:09.300Z,7.90
2018-02-04T11:24:13.453Z,7.50
2018-02-04T11:25:18.420Z,9.93
2018-02-04T11:26:23.689Z,7.18
2018-02-04T11:27:28.536Z,6.50
2018-02-04T11:28:33.309Z,6.80
2018-02-04T11:29:37.264Z,7.80
2018-02-04T11:30:41.285Z,8.02
2018-02-04T11:31:45.419Z,7.65
2018-02-04T11:32:49.653Z,7.47
2018-02-04T11:33:54.507Z,6.60
2018-02-04T11:34:59.254Z,8.50
2018-02-04T11:36:03.405Z,6.70
2018-02-04T11:37:07.584Z,8.43
2018-02-04T11:38:11.670Z,7.47
2018-02-04T11:39:15.621Z,7.55
2018-02-04T11:40:19.721Z,7.40
2018-02-04T11:41:23.942Z,8.23
2018-02-04T11:42:28.191Z,8.80
2018-02-04T11:43:33.467Z,7.85
2018-02-04T11:44:37.500Z,11.70
2018-02-04T11:45:41.667Z,6.12
2018-02-04T11:46:45.945Z,10.65
2018-02-04T11:47:50.897Z,8.07
2018-02-04T11:48:55.493Z,15.95
2018-02-04T11:50:00.427Z,7.37
2018-02-04T11:51:04.612Z,12.02
2018-02-04T11:52:09.524Z,10.27
2018-02-04T11:53:13.782Z,12.40
2018-02-04T11:54:18.129Z,13.32
2018-02-04T11:55:22.499Z,11.50
2018-02-04T11:56:26.556Z,8.77
2018-02-04T11:57:31.850Z,9.20
2018-02-04T11:58:35.789Z,15.77
2018-02-04T11:59:40.969Z,14.50
2018-02-04T12:00:45.497Z,13.48
2018-02-04T12:01:49.698Z,10.25
2018-02-04T12:02:53.901Z,8.70
2018-02-04T12:03:58.089Z,9.05
2018-02-04T12:05:02.344Z,9.07
2018-02-04T12:06:07.385Z,9.65
2018-02-04T12:07:11.796Z,11.50
2018-02-04T12:08:15.812Z,8.57
2018-02-04T12:09:19.834Z,8.65
2018-02-04T12:10:23.795Z,9.65
2018-02-04T12:11:27.826Z,9.27
2018-02-04T12:12:31.846Z,9.30
2018-02-04T12:13:36.370Z,11.10
2018-02-04T12:14:41.175Z,9.38
2018-02-04T12:15:45.152Z,7.10
2018-02-04T12:16:49.154Z,8.45
2018-02-04T12:17:53.505Z,8.70
2018-02-04T12:18:58.907Z,9.80
2018-02-04T12:20:03.728Z,11.63
2018-02-04T12:21:07.730Z,12.15
2018-02-04T12:22:11.761Z,11.63
2018-02-04T12:23:16.534Z,9.57
2018-02-04T12:24:20.797Z,9.40
2018-02-04T12:25:25.538Z,11.30
2018-02-04T12:26:29.454Z,8.80
2018-02-04T12:27:33.742Z,10.18
2018-02-04T12:28:38.010Z,10.23
2018-02-04T12:29:43.469Z,8.45
2018-02-04T12:30:47.616Z,8.63
2018-02-04T12:31:51.827Z,10.57
2018-02-04T12:32:56.291Z,14.50
2018-02-04T12:34:01.235Z,12.65
2018-02-04T12:35:05.509Z,12.57
2018-02-04T12:36:09.620Z,11.95
2018-02-04T12:37:13.764Z,11.00
2018-02-04T12:38:17.897Z,10.70
2018-02-04T12:39:21.898Z,9.20
2018-02-04T12:40:25.921Z,8.52
2018-02-04T12:41:29.965Z,10.45
2018-02-04T12:42:34.144Z,11.75
2018-02-04T12:43:38.233Z,9.35
2018-02-04T12:44:42.359Z,11.57
2018-02-04T12:45:46.434Z,12.02
2018-02-04T12:46:50.477Z,10.88
2018-02-04T12:47:54.523Z,10.38
2018-02-04T12:48:59.286Z,10.85
2018-02-04T12:50:03.587Z,7.85
2018-02-04T12:51:07.640Z,10.27
2018-02-04T12:52:12.477Z,8.18
2018-02-04T12:53:17.304Z,9.48
2018-02-04T12:54:21.635Z,9.60
2018-02-04T12:55:25.566Z,9.30
2018-02-04T12:56:29.672Z,14.05
2018-02-04T12:57:33.623Z,15.35
2018-02-04T12:58:37.620Z,11.80
2018-02-04T12:59:41.568Z,15.60
2018-02-04T13:00:45.602Z,12.90
2018-02-04T13:01:49.577Z,13.37
2018-02-04T13:02:53.901Z,9.32
2018-02-04T13:03:58.863Z,10.65
2018-02-04T13:05:03.060Z,11.07
2018-02-04T13:06:07.348Z,10.80
2018-02-04T13:07:11.832Z,10.63
2018-02-04T13:08:16.784Z,9.65
2018-02-04T13:09:21.019Z,8.75
2018-02-04T13:10:25.233Z,8.57
2018-02-04T13:11:29.487Z,11.55
2018-02-04T13:12:34.841Z,12.52
2018-02-04T13:13:38.987Z,7.80
2018-02-04T13:14:43.131Z,10.82
2018-02-04T13:15:47.427Z,12.23
2018-02-04T13:16:52.383Z,10.55
2018-02-04T13:17:56.536Z,10.30
2018-02-04T13:19:00.782Z,8.00
2018-02-04T13:20:04.926Z,10.13
2018-02-04T13:21:09.044Z,7.03
2018-02-04T13:22:13.169Z,9.03
2018-02-04T13:23:18.222Z,7.37
2018-02-04T13:24:23.107Z,13.13
2018-02-04T13:25:28.403Z,10.98
2018-02-04T13:26:32.536Z,10.30
2018-02-04T13:27:37.417Z,10.80
2018-02-04T13:28:41.513Z,14.27
2018-02-04T13:29:45.677Z,16.55
2018-02-04T13:30:49.870Z,18.27
2018-02-04T13:31:55.266Z,12.10
2018-02-04T13:32:59.384Z,16.40
2018-02-04T13:34:03.500Z,9.75
2018-02-04T13:35:07.672Z,10.30
2018-02-04T13:36:11.834Z,9.90
2018-02-04T13:37:16.183Z,10.20
2018-02-04T13:38:20.630Z,9.93
2018-02-04T13:39:25.570Z,10.80
2018-02-04T13:40:30.488Z,10.40
2018-02-04T13:41:35.441Z,7.62
2018-02-04T13:42:39.580Z,5.87
2018-02-04T13:43:43.897Z,7.07
2018-02-04T13:44:48.096Z,6.87
2018-02-04T13:45:52.233Z,6.53
2018-02-04T13:46:56.408Z,6.22
2018-02-04T13:48:00.552Z,6.80
2018-02-04T13:49:07.020Z,7.07
2018-02-04T13:50:11.472Z,7.22
2018-02-04T13:51:16.036Z,7.40
2018-02-04T13:52:20.534Z,5.90
2018-02-04T13:53:24.715Z,5.60
2018-02-04T13:54:28.866Z,8.48
2018-02-04T13:55:33.021Z,7.80
2018-02-04T13:56:37.345Z,7.37
2018-02-04T13:57:42.560Z,7.55
2018-02-04T13:58:47.644Z,8.55
2018-02-04T13:59:51.854Z,10.45
2018-02-04T14:00:56.145Z,7.07
2018-02-04T14:02:00.270Z,6.75
2018-02-04T14:03:04.546Z,7.72
2018-02-04T14:04:08.961Z,18.83
2018-02-04T14:05:13.076Z,13.98
2018-02-04T14:06:17.353Z,9.25
2018-02-04T14:07:21.505Z,6.35
2018-02-04T14:08:25.634Z,10.50
2018-02-04T14:09:30.658Z,6.80